createdAt,value
2023-11-18T00:02:06.160Z,101510.41
2023-11-18T00:04:32.604Z,101514.00
2023-11-18T00:07:00.598Z,101508.00
2023-11-18T00:09:27.032Z,101521.84
2023-11-18T00:11:53.594Z,101514.06
2023-11-18T00:14:21.836Z,101509.69
2023-11-18T00:16:50.906Z,101514.78
2023-11-18T00:19:18.421Z,101515.66
2023-11-18T00:21:45.209Z,101526.03
2023-11-18T00:24:11.669Z,101517.25
2023-11-18T00:26:38.150Z,101524.28
2023-11-18T00:29:05.104Z,101522.28
2023-11-18T00:31:33.847Z,101521.88
2023-11-18T00:34:00.448Z,101522.94
2023-11-18T00:36:27.626Z,101527.34
2023-11-18T00:38:54.440Z,101517.00
2023-11-18T00:41:20.834Z,101511.78
2023-11-18T00:43:47.283Z,101516.28
2023-11-18T00:46:13.906Z,101520.72
2023-11-18T00:48:40.401Z,101514.66
2023-11-18T00:51:07.540Z,101519.09
2023-11-18T00:53:36.286Z,101510.41
2023-11-18T00:56:03.078Z,101513.81
2023-11-18T00:58:30.159Z,101511.41
2023-11-18T01:01:01.724Z,101519.34
2023-11-18T01:03:29.045Z,101519.47
2023-11-18T01:05:55.529Z,101520.53
2023-11-18T01:08:24.303Z,101520.72
2023-11-18T01:10:50.709Z,101521.75
2023-11-18T01:13:17.190Z,101534.94
2023-11-18T01:15:43.634Z,101536.84
2023-11-18T01:18:10.155Z,101538.91
2023-11-18T01:20:36.621Z,101537.34
2023-11-18T01:23:03.142Z,101532.31
2023-11-18T01:25:30.574Z,101534.13
2023-11-18T01:27:59.360Z,101536.91
2023-11-18T01:30:27.822Z,101534.47
2023-11-18T01:32:54.409Z,101526.84
2023-11-18T01:35:20.898Z,101522.66
2023-11-18T01:37:49.231Z,101528.00
2023-11-18T01:40:16.615Z,101521.16
2023-11-18T01:42:44.539Z,101527.28
2023-11-18T01:45:13.434Z,101528.72
2023-11-18T01:47:45.012Z,101525.63
2023-11-18T01:50:13.843Z,101520.53
2023-11-18T01:52:43.369Z,101531.81
2023-11-18T01:55:11.622Z,101527.44
2023-11-18T01:57:38.325Z,101530.84
2023-11-18T02:00:07.389Z,101530.84
2023-11-18T02:02:34.273Z,101532.66
2023-11-18T02:05:02.976Z,101530.97
2023-11-18T02:07:30.383Z,101535.09
2023-11-18T02:09:57.071Z,101534.06
2023-11-18T02:12:57.670Z,101529.88
2023-11-18T02:15:26.177Z,101529.03
2023-11-18T02:17:54.744Z,101529.16
2023-11-18T02:20:25.014Z,101529.16
2023-11-18T02:22:54.860Z,101522.47
2023-11-18T02:25:25.188Z,101531.59
2023-11-18T02:27:54.549Z,101531.03
2023-11-18T02:30:21.822Z,101532.13
2023-11-18T02:33:15.592Z,101553.13
2023-11-18T02:35:53.920Z,101544.81
2023-11-18T02:38:29.002Z,101543.91
2023-11-18T02:40:58.304Z,101536.38
2023-11-18T02:43:29.802Z,101535.59
2023-11-18T02:45:58.841Z,101541.81
2023-11-18T02:48:29.331Z,101538.59
2023-11-18T02:50:55.790Z,101537.00
2023-11-18T02:53:25.645Z,101527.59
2023-11-18T02:55:55.053Z,101517.28
2023-11-18T02:58:22.086Z,101520.94
2023-11-18T03:00:48.988Z,101525.38
2023-11-18T03:03:16.437Z,101522.06
2023-11-18T03:05:42.854Z,101520.44
2023-11-18T03:08:12.694Z,101514.28
2023-11-18T03:10:45.447Z,101520.44
2023-11-18T03:13:13.276Z,101515.34
2023-11-18T03:15:42.012Z,101504.22
2023-11-18T03:18:10.524Z,101507.84
2023-11-18T03:20:37.077Z,101503.59
2023-11-18T03:23:03.574Z,101512.41
2023-11-18T03:25:32.473Z,101507.31
2023-11-18T03:27:59.182Z,101512.63
2023-11-18T03:30:30.067Z,101512.63
2023-11-18T03:32:56.644Z,101505.59
2023-11-18T03:35:25.150Z,101512.63
2023-11-18T03:37:52.872Z,101509.09
2023-11-18T03:40:19.329Z,101501.88
2023-11-18T03:42:50.916Z,101505.66
2023-11-18T03:45:18.891Z,101510.97
2023-11-18T03:47:46.335Z,101508.22
2023-11-18T03:50:14.426Z,101513.13
2023-11-18T03:52:41.279Z,101512.13
2023-11-18T03:55:09.259Z,101511.03
2023-11-18T03:57:35.773Z,101519.16
2023-11-18T04:00:02.228Z,101519.72
2023-11-18T04:02:30.373Z,101522.44
2023-11-18T04:04:56.958Z,101526.81
2023-11-18T04:07:23.363Z,101529.34
2023-11-18T04:09:54.986Z,101527.59
2023-11-18T04:12:21.388Z,101518.13
2023-11-18T04:14:47.811Z,101514.56
2023-11-18T04:17:14.289Z,101524.19
2023-11-18T04:19:46.653Z,101521.66
2023-11-18T04:22:15.505Z,101522.66
2023-11-18T04:24:46.267Z,101508.91
2023-11-18T04:27:12.682Z,101497.72
2023-11-18T04:29:39.301Z,101497.84
2023-11-18T04:32:06.073Z,101488.38
2023-11-18T04:34:36.675Z,101496.25
2023-11-18T04:37:07.111Z,101494.63
2023-11-18T04:39:33.946Z,101492.06
2023-11-18T04:42:02.223Z,101498.06
2023-11-18T04:44:28.703Z,101505.75
2023-11-18T04:46:55.178Z,101504.91
2023-11-18T04:49:21.746Z,101506.34
2023-11-18T04:51:48.267Z,101497.31
2023-11-18T04:54:20.459Z,101505.72
2023-11-18T04:56:47.200Z,101497.75
2023-11-18T04:59:13.704Z,101499.03
2023-11-18T05:01:44.984Z,101499.72
2023-11-18T05:04:17.068Z,101503.78
2023-11-18T05:06:43.456Z,101507.19
2023-11-18T05:09:10.015Z,101501.88
2023-11-18T05:11:39.913Z,101505.22
2023-11-18T05:14:12.337Z,101504.00
2023-11-18T05:16:40.234Z,101502.06
2023-11-18T05:19:08.592Z,101498.44
2023-11-18T05:21:35.283Z,101494.69
2023-11-18T05:24:01.720Z,101504.19
2023-11-18T05:26:28.228Z,101510.97
2023-11-18T05:28:55.837Z,101505.63
2023-11-18T05:31:27.053Z,101504.72
2023-11-18T05:33:59.013Z,101506.38
2023-11-18T05:36:38.055Z,101512.44
2023-11-18T05:39:06.120Z,101514.16
2023-11-18T05:41:33.206Z,101507.13
2023-11-18T05:43:59.832Z,101503.59
2023-11-18T05:46:27.262Z,101487.81
2023-11-18T05:48:54.291Z,101493.03
2023-11-18T05:51:28.052Z,101484.28
2023-11-18T05:53:54.707Z,101472.00
2023-11-18T05:56:23.964Z,101469.41
2023-11-18T05:58:55.876Z,101478.94
2023-11-18T06:01:23.189Z,101478.09
2023-11-18T06:03:52.480Z,101477.09
2023-11-18T06:06:22.484Z,101475.34
2023-11-18T06:08:54.444Z,101488.53
2023-11-18T06:11:21.548Z,101500.69
2023-11-18T06:13:51.724Z,101501.53
2023-11-18T06:16:25.688Z,101495.56
2023-11-18T06:18:54.408Z,101490.22
2023-11-18T06:21:25.456Z,101495.56
2023-11-18T06:23:56.707Z,101489.38
2023-11-18T06:26:29.656Z,101496.44
2023-11-18T06:28:57.383Z,101504.16
2023-11-18T06:31:25.183Z,101496.44
2023-11-18T06:33:52.152Z,101498.00
2023-11-18T06:36:19.694Z,101498.13
2023-11-18T06:38:47.282Z,101494.47
2023-11-18T06:41:17.967Z,101484.88
2023-11-18T06:43:55.248Z,101485.84
2023-11-18T06:46:23.251Z,101491.22
2023-11-18T06:48:55.398Z,101489.50
2023-11-18T06:51:25.693Z,101491.44
2023-11-18T06:53:52.960Z,101494.22
2023-11-18T06:56:24.135Z,101493.38
2023-11-18T06:58:50.910Z,101497.59
2023-11-18T07:01:18.382Z,101501.00
2023-11-18T07:03:55.106Z,101510.41
2023-11-18T07:06:23.661Z,101505.91
2023-11-18T07:08:50.933Z,101505.72
2023-11-18T07:11:20.365Z,101511.75
2023-11-18T07:13:50.189Z,101516.03
2023-11-18T07:16:20.068Z,101516.88
2023-11-18T07:18:46.852Z,101509.69
2023-11-18T07:21:15.321Z,101515.66
2023-11-18T07:23:43.446Z,101515.59
2023-11-18T07:26:11.122Z,101512.75
2023-11-18T07:28:37.849Z,101507.41
2023-11-18T07:31:06.028Z,101493.28
2023-11-18T07:33:33.606Z,101498.38
2023-11-18T07:36:00.312Z,101494.88
2023-11-18T07:38:28.326Z,101493.78
2023-11-18T07:40:57.764Z,101496.19
2023-11-18T07:43:24.609Z,101500.53
2023-11-18T07:45:53.493Z,101501.25
2023-11-18T07:48:21.724Z,101506.31
2023-11-18T07:50:48.563Z,101515.91
2023-11-18T07:53:17.776Z,101512.16
2023-11-18T07:55:45.755Z,101504.25
2023-11-18T07:58:14.565Z,101512.88
2023-11-18T08:00:43.517Z,101518.00
2023-11-18T08:03:15.922Z,101516.91
2023-11-18T08:05:47.220Z,101526.38
2023-11-18T08:08:18.063Z,101522.72
2023-11-18T08:10:45.437Z,101522.72
2023-11-18T08:13:19.959Z,101521.56
2023-11-18T08:15:46.579Z,101517.13
2023-11-18T08:18:13.528Z,101523.97
2023-11-18T08:20:44.613Z,101522.06
2023-11-18T08:23:13.653Z,101522.84
2023-11-18T08:25:41.222Z,101511.31
2023-11-18T08:28:09.335Z,101518.31
2023-11-18T08:30:38.354Z,101525.16
2023-11-18T08:33:10.218Z,101526.03
2023-11-18T08:35:37.444Z,101516.25
2023-11-18T08:38:05.308Z,101516.94
2023-11-18T08:40:35.506Z,101522.81
2023-11-18T08:43:06.485Z,101508.59
2023-11-18T08:45:38.570Z,101510.16
2023-11-18T08:48:09.691Z,101510.75
2023-11-18T08:50:37.998Z,101502.69
2023-11-18T08:53:10.556Z,101499.16
2023-11-18T08:55:40.651Z,101498.78
2023-11-18T08:58:19.772Z,101503.72
2023-11-18T09:00:55.789Z,101504.72
2023-11-18T09:03:35.406Z,101498.22
2023-11-18T09:06:18.962Z,101504.09
2023-11-18T09:08:54.463Z,101508.28
2023-11-18T09:11:28.110Z,101506.09
2023-11-18T09:14:01.654Z,101503.03
2023-11-18T09:16:32.196Z,101501.03
2023-11-18T09:19:03.743Z,101505.25
2023-11-18T09:21:31.193Z,101503.47
2023-11-18T09:23:58.053Z,101509.06
2023-11-18T09:26:31.268Z,101505.72
2023-11-18T09:28:59.224Z,101512.25
2023-11-18T09:31:25.804Z,101516.28
2023-11-18T09:33:55.263Z,101508.41
2023-11-18T09:36:23.535Z,101508.28
2023-11-18T09:38:53.639Z,101503.47
2023-11-18T09:41:25.412Z,101510.97
2023-11-18T09:43:55.530Z,101513.38
2023-11-18T09:46:29.949Z,101508.69
2023-11-18T09:49:16.396Z,101517.47
2023-11-18T09:51:48.041Z,101507.56
2023-11-18T09:54:26.262Z,101515.22
2023-11-18T09:57:00.841Z,101517.59
2023-11-18T09:59:44.351Z,101521.00
2023-11-18T10:02:11.968Z,101523.47
2023-11-18T10:04:40.381Z,101529.63
2023-11-18T10:07:12.493Z,101527.03
2023-11-18T10:09:44.130Z,101519.72
2023-11-18T10:12:13.305Z,101521.66
2023-11-18T10:14:45.069Z,101515.19
2023-11-18T10:17:15.914Z,101523.28
2023-11-18T10:19:52.296Z,101513.47
2023-11-18T10:22:29.351Z,101518.22
2023-11-18T10:24:59.181Z,101519.31
2023-11-18T10:27:27.006Z,101518.47
2023-11-18T10:30:03.981Z,101522.28
2023-11-18T10:32:37.153Z,101517.19
2023-11-18T10:35:06.456Z,101527.53
2023-11-18T10:37:33.261Z,101517.50
2023-11-18T10:40:05.358Z,101519.25
2023-11-18T10:42:34.629Z,101523.66
2023-11-18T10:45:04.819Z,101517.66
2023-11-18T10:47:40.944Z,101508.78
2023-11-18T10:50:11.098Z,101512.31
2023-11-18T10:52:38.681Z,101514.88
2023-11-18T10:55:14.339Z,101518.13
2023-11-18T10:57:43.224Z,101519.34
2023-11-18T11:00:20.278Z,101524.00
2023-11-18T11:02:52.984Z,101517.97
2023-11-18T11:05:42.778Z,101525.38
2023-11-18T11:08:09.821Z,101519.16
2023-11-18T11:10:37.081Z,101520.78
2023-11-18T11:13:03.955Z,101515.53
2023-11-18T11:15:39.812Z,101512.84
2023-11-18T11:18:16.881Z,101503.19
2023-11-18T11:20:52.216Z,101495.91
2023-11-18T11:23:45.271Z,101501.16
2023-11-18T11:26:29.215Z,101487.28
2023-11-18T11:29:07.445Z,101492.38
2023-11-18T11:31:40.179Z,101496.56
2023-11-18T11:34:24.883Z,101484.19
2023-11-18T11:36:53.841Z,101476.00
2023-11-18T11:39:27.173Z,101474.16
2023-11-18T11:41:57.412Z,101467.97
2023-11-18T11:44:32.212Z,101460.25
2023-11-18T11:47:01.915Z,101458.72
2023-11-18T11:49:38.178Z,101464.13
2023-11-18T11:52:16.106Z,101465.81
2023-11-18T11:55:04.056Z,101457.47
2023-11-18T11:57:34.054Z,101454.63
2023-11-18T12:00:16.260Z,101450.53
2023-11-18T12:02:55.727Z,101448.91
2023-11-18T12:05:29.149Z,101449.28
2023-11-18T12:07:59.519Z,101444.00
2023-11-18T12:10:39.375Z,101449.28
2023-11-18T12:13:17.077Z,101443.06
2023-11-18T12:16:05.177Z,101450.84
2023-11-18T12:18:37.747Z,101451.69
2023-11-18T12:21:05.282Z,101442.06
2023-11-18T12:23:36.012Z,101447.47
2023-11-18T12:26:04.340Z,101447.59
2023-11-18T12:28:35.765Z,101443.28
2023-11-18T12:31:07.631Z,101456.41
2023-11-18T12:33:57.703Z,101454.69
2023-11-18T12:36:31.133Z,101456.41
2023-11-18T12:39:38.957Z,101452.56
2023-11-18T12:42:23.944Z,101450.09
2023-11-18T12:45:21.899Z,101436.50
2023-11-18T12:47:56.181Z,101439.09
2023-11-18T12:50:29.643Z,101443.59
2023-11-18T12:52:58.514Z,101443.59
2023-11-18T12:55:27.482Z,101452.22
2023-11-18T12:57:55.259Z,101450.53
2023-11-18T13:00:27.906Z,101440.03
2023-11-18T13:02:59.486Z,101434.78
2023-11-18T13:05:31.294Z,101422.44
2023-11-18T13:08:02.798Z,101427.53
2023-11-18T13:10:29.436Z,101410.03
2023-11-18T13:12:59.198Z,101415.91
2023-11-18T13:15:28.542Z,101416.75
2023-11-18T13:18:08.350Z,101410.50
2023-11-18T13:20:36.923Z,101397.47
2023-11-18T13:23:09.794Z,101388.66
2023-11-18T13:25:40.519Z,101387.81
2023-11-18T13:28:12.134Z,101390.53
2023-11-18T13:30:40.950Z,101392.22
2023-11-18T13:33:08.652Z,101386.25
2023-11-18T13:35:36.559Z,101385.28
2023-11-18T13:38:05.793Z,101383.41
2023-11-18T13:40:47.876Z,101380.88
2023-11-18T13:43:14.932Z,101376.47
2023-11-18T13:45:43.393Z,101373.09
2023-11-18T13:48:13.381Z,101370.38
2023-11-18T13:50:44.704Z,101368.53
2023-11-18T13:53:14.165Z,101355.31
2023-11-18T13:55:41.362Z,101349.16
2023-11-18T13:58:11.582Z,101347.13
2023-11-18T14:00:40.724Z,101349.75
2023-11-18T14:03:12.935Z,101339.25
2023-11-18T14:05:40.127Z,101340.94
2023-11-18T14:08:13.461Z,101365.31
2023-11-18T14:10:42.440Z,101354.84
2023-11-18T14:13:13.906Z,101362.69
2023-11-18T14:15:43.549Z,101375.97
2023-11-18T14:18:14.096Z,101388.19
2023-11-18T14:20:41.234Z,101388.34
2023-11-18T14:23:08.400Z,101369.22
2023-11-18T14:25:35.136Z,101363.28
2023-11-18T14:28:03.626Z,101367.69
2023-11-18T14:30:31.411Z,101371.22
2023-11-18T14:33:00.140Z,101363.56
2023-11-18T14:35:30.130Z,101350.69
2023-11-18T14:37:59.619Z,101355.19
2023-11-18T14:40:26.104Z,101357.97
2023-11-18T14:42:53.256Z,101368.28
2023-11-18T14:45:19.851Z,101373.53
2023-11-18T14:47:47.126Z,101379.78
2023-11-18T14:50:18.952Z,101379.88
2023-11-18T14:52:53.105Z,101376.47
2023-11-18T14:55:22.097Z,101382.50
2023-11-18T14:57:48.868Z,101372.09
2023-11-18T15:00:23.879Z,101370.44
2023-11-18T15:02:51.740Z,101376.56
2023-11-18T15:05:20.162Z,101374.00
2023-11-18T15:07:48.922Z,101359.25
2023-11-18T15:10:20.805Z,101359.19
2023-11-18T15:12:49.384Z,101353.16
2023-11-18T15:15:19.590Z,101360.09
2023-11-18T15:17:48.505Z,101355.94
2023-11-18T15:20:24.143Z,101363.81
2023-11-18T15:22:53.126Z,101358.03
2023-11-18T15:25:19.905Z,101345.00
2023-11-18T15:27:47.137Z,101337.16
2023-11-18T15:30:15.278Z,101324.16
2023-11-18T15:32:45.291Z,101321.72
2023-11-18T15:35:13.847Z,101318.06
2023-11-18T15:37:47.011Z,101318.94
2023-11-18T15:40:15.430Z,101304.97
2023-11-18T15:42:43.635Z,101293.63
2023-11-18T15:45:17.808Z,101283.31
2023-11-18T15:47:45.249Z,101276.28
2023-11-18T15:50:19.804Z,101280.59
2023-11-18T15:52:48.965Z,101271.91
2023-11-18T15:55:19.102Z,101271.91
2023-11-18T15:57:56.299Z,101269.34
2023-11-18T16:00:26.047Z,101252.00
2023-11-18T16:03:01.826Z,101238.91
2023-11-18T16:05:34.331Z,101237.97
2023-11-18T16:08:02.546Z,101232.81
2023-11-18T16:10:29.064Z,101226.56
2023-11-18T16:12:58.660Z,101215.31
2023-11-18T16:15:29.769Z,101212.00
2023-11-18T16:17:58.641Z,101226.91
2023-11-18T16:20:34.612Z,101219.97
2023-11-18T16:23:05.530Z,101232.25
2023-11-18T16:25:35.215Z,101233.97
2023-11-18T16:28:03.461Z,101226.09
2023-11-18T16:30:33.833Z,101232.25
2023-11-18T16:33:05.251Z,101220.09
2023-11-18T16:35:32.138Z,101214.16
2023-11-18T16:38:01.142Z,101220.34
2023-11-18T16:40:28.497Z,101207.31
2023-11-18T16:42:57.004Z,101197.50
2023-11-18T16:45:25.720Z,101188.63
2023-11-18T16:47:53.955Z,101190.31
2023-11-18T16:50:24.699Z,101171.84
2023-11-18T16:52:51.945Z,101156.13
2023-11-18T16:55:18.671Z,101152.66
2023-11-18T16:57:46.816Z,101140.47
2023-11-18T17:00:17.256Z,101132.53
2023-11-18T17:02:48.635Z,101125.59
2023-11-18T17:05:18.015Z,101125.72
2023-11-18T17:07:44.522Z,101136.22
2023-11-18T17:10:14.083Z,101138.84
2023-11-18T17:12:46.022Z,101144.41
2023-11-18T17:15:16.758Z,101147.19
2023-11-18T17:17:45.219Z,101137.81
2023-11-18T17:20:13.655Z,101118.59
2023-11-18T17:22:43.216Z,101124.72
2023-11-18T17:25:11.651Z,101124.84
2023-11-18T17:27:38.214Z,101131.69
2023-11-18T17:30:13.080Z,101138.88
2023-11-18T17:32:50.779Z,101134.56
2023-11-18T17:35:21.467Z,101124.00
2023-11-18T17:37:48.324Z,101124.09
2023-11-18T17:40:16.312Z,101111.06
2023-11-18T17:42:47.082Z,101109.28
2023-11-18T17:45:15.397Z,101113.00
2023-11-18T17:47:43.843Z,101102.53
2023-11-18T17:50:13.570Z,101098.22
2023-11-18T17:52:42.449Z,101088.66
2023-11-18T17:55:09.858Z,101067.69
2023-11-18T17:57:36.747Z,101051.13
2023-11-18T18:00:20.876Z,101027.66
2023-11-18T18:02:48.472Z,101004.38
2023-11-18T18:05:15.419Z,101019.16
2023-11-18T18:07:44.694Z,101031.50
2023-11-18T18:10:13.446Z,101030.50
2023-11-18T18:12:42.312Z,101017.38
2023-11-18T18:15:13.429Z,101006.22
2023-11-18T18:17:39.944Z,101005.31
2023-11-18T18:20:10.940Z,101003.63
2023-11-18T18:22:38.594Z,100993.22
2023-11-18T18:25:05.752Z,100973.19
2023-11-18T18:27:35.195Z,100975.72
2023-11-18T18:30:03.693Z,100964.66
2023-11-18T18:32:30.585Z,100988.16
2023-11-18T18:34:57.366Z,100980.38
2023-11-18T18:37:27.301Z,100977.75
2023-11-18T18:39:55.285Z,100985.00
2023-11-18T18:42:25.323Z,100981.44
2023-11-18T18:44:55.510Z,100962.34
2023-11-18T18:47:26.979Z,100964.03
2023-11-18T18:49:56.377Z,100957.13
2023-11-18T18:52:22.854Z,100932.78
2023-11-18T18:54:50.053Z,100935.25
2023-11-18T18:57:16.842Z,100923.16
2023-11-18T18:59:43.962Z,100911.84
2023-11-18T19:02:11.062Z,100903.81
2023-11-18T19:04:38.326Z,100905.59
2023-11-18T19:07:05.090Z,100891.50
2023-11-18T19:09:31.640Z,100901.91
2023-11-18T19:11:58.198Z,100897.63
2023-11-18T19:14:24.658Z,100889.97
2023-11-18T19:16:53.450Z,100889.19
2023-11-18T19:19:20.535Z,100882.09
2023-11-18T19:21:51.893Z,100882.09
2023-11-18T19:24:19.923Z,100875.78
2023-11-18T19:26:49.332Z,100859.38
2023-11-18T19:29:15.980Z,100860.22
2023-11-18T19:31:42.637Z,100855.91
2023-11-18T19:34:11.667Z,100865.38
2023-11-18T19:36:40.785Z,100866.22
2023-11-18T19:39:09.427Z,100874.16
2023-11-18T19:41:36.444Z,100908.91
2023-11-18T19:44:03.065Z,100899.38
2023-11-18T19:46:29.924Z,100874.88
2023-11-18T19:48:56.579Z,100878.41
2023-11-18T19:51:22.980Z,100876.56
2023-11-18T19:53:49.414Z,100855.59
2023-11-18T19:56:16.273Z,100855.59
2023-11-18T19:58:42.890Z,100855.59
2023-11-18T20:01:18.088Z,100851.13
2023-11-18T20:03:45.537Z,100853.56
2023-11-18T20:06:12.446Z,100840.47
2023-11-18T20:08:43.625Z,100847.56
2023-11-18T20:11:13.182Z,100847.38
2023-11-18T20:13:40.686Z,100851.03
2023-11-18T20:16:10.216Z,100850.19
2023-11-18T20:18:36.827Z,100839.72
2023-11-18T20:21:03.920Z,100839.72
2023-11-18T20:23:32.997Z,100830.91
2023-11-18T20:26:05.762Z,100833.53
2023-11-18T20:28:35.227Z,100844.78
2023-11-18T20:31:01.735Z,100843.00
2023-11-18T20:33:28.203Z,100835.03
2023-11-18T20:35:59.507Z,100829.72
2023-11-18T20:38:28.166Z,100833.19
2023-11-18T20:40:54.629Z,100842.72
2023-11-18T20:43:25.957Z,100834.88
2023-11-18T20:45:54.840Z,100822.63
2023-11-18T20:48:21.404Z,100826.03
2023-11-18T20:50:52.615Z,100827.72
2023-11-18T20:53:21.385Z,100827.63
2023-11-18T20:55:48.357Z,100821.63
2023-11-18T20:58:17.375Z,100820.78
2023-11-18T21:00:43.925Z,100831.25
2023-11-18T21:03:10.738Z,100825.00
2023-11-18T21:05:37.519Z,100817.88
2023-11-18T21:08:07.768Z,100802.25
2023-11-18T21:10:35.232Z,100801.25
2023-11-18T21:13:01.953Z,100796.75
2023-11-18T21:15:28.367Z,100800.03
2023-11-18T21:17:55.034Z,100795.63
2023-11-18T21:20:21.677Z,100799.78
2023-11-18T21:22:50.161Z,100806.72
2023-11-18T21:25:19.954Z,100800.34
2023-11-18T21:27:49.059Z,100791.38
2023-11-18T21:30:15.721Z,100798.03
2023-11-18T21:32:46.541Z,100788.25
2023-11-18T21:35:15.392Z,100776.91
2023-11-18T21:37:42.104Z,100766.25
2023-11-18T21:40:13.382Z,100777.56
2023-11-18T21:42:41.018Z,100771.41
2023-11-18T21:45:08.189Z,100762.59
2023-11-18T21:47:37.190Z,100751.16
2023-11-18T21:50:06.614Z,100741.53
2023-11-18T21:52:35.694Z,100745.75
2023-11-18T21:55:04.772Z,100746.59
2023-11-18T21:57:31.286Z,100741.34
2023-11-18T21:59:57.700Z,100750.97
2023-11-18T22:02:24.485Z,100746.59
2023-11-18T22:04:51.277Z,100738.81
2023-11-18T22:07:19.978Z,100735.34
2023-11-18T22:09:48.130Z,100740.50
2023-11-18T22:12:15.170Z,100731.88
2023-11-18T22:14:41.797Z,100738.72
2023-11-18T22:17:11.076Z,100733.56
2023-11-18T22:19:37.513Z,100723.09
2023-11-18T22:22:06.304Z,100721.41
2023-11-18T22:24:32.777Z,100715.31
2023-11-18T22:27:01.615Z,100724.03
2023-11-18T22:29:28.949Z,100720.56
2023-11-18T22:31:56.318Z,100718.88
2023-11-18T22:34:22.790Z,100714.38
2023-11-18T22:36:49.434Z,100700.44
2023-11-18T22:39:23.942Z,100686.38
2023-11-18T22:41:52.928Z,100682.00
2023-11-18T22:44:23.654Z,100683.78
2023-11-18T22:46:50.511Z,100682.81
2023-11-18T22:49:18.015Z,100682.81
2023-11-18T22:51:44.455Z,100679.28
2023-11-18T22:54:12.143Z,100677.41
2023-11-18T22:56:38.704Z,100660.91
2023-11-18T22:59:05.575Z,100651.19
2023-11-18T23:01:32.128Z,100663.38
2023-11-18T23:03:59.277Z,100653.75
2023-11-18T23:06:30.258Z,100637.16
2023-11-18T23:08:59.113Z,100644.94
2023-11-18T23:11:26.524Z,100640.53
2023-11-18T23:13:53.414Z,100636.97
2023-11-18T23:16:22.025Z,100621.16
2023-11-18T23:18:48.638Z,100625.34
2023-11-18T23:21:17.659Z,100628.81
2023-11-18T23:23:44.097Z,100659.25
2023-11-18T23:26:12.705Z,100659.03
2023-11-18T23:28:39.219Z,100662.41
2023-11-18T23:31:06.080Z,100651.75
2023-11-18T23:33:32.830Z,100653.34
2023-11-18T23:36:03.778Z,100641.06
2023-11-18T23:38:30.973Z,100639.41
2023-11-18T23:40:57.425Z,100633.94
2023-11-18T23:43:23.962Z,100628.50
2023-11-18T23:45:50.509Z,100622.22
2023-11-18T23:48:18.299Z,100620.28
2023-11-18T23:50:44.928Z,100617.66
2023-11-18T23:53:13.857Z,100614.09
2023-11-18T23:55:40.341Z,100607.81
2023-11-18T23:58:09.258Z,100603.41
